Time;durP1;ratioP1;P1;durP2;ratioP2;P2;SDS_P1;SDS_P2;PMS_P1;PMS_P2;Temp;Humidity;BMP_temperature;BMP_pressure;BME280_temperature;BME280_humidity;BME280_pressure;Samples;Min_cycle;Max_cycle;Signal;HPM_P1;HPM_P2
2023/04/27 00:00:18;;;;;;;5.63;4.13;;;13.00;86.50;;;;;;10146629;28;20032;-63
2023/04/27 00:05:10;;;;;;;7.88;3.55;;;12.90;86.80;;;;;;10160461;28;20074;-61
2023/04/27 00:10:01;;;;;;;6.00;3.47;;;12.90;87.10;;;;;;10155195;28;20036;-64
2023/04/27 00:14:51;;;;;;;4.88;3.22;;;12.90;87.70;;;;;;10159019;28;20120;-63
2023/04/27 00:19:42;;;;;;;5.32;3.45;;;12.90;88.00;;;;;;10165913;28;20059;-62
2023/04/27 00:24:33;;;;;;;5.05;3.25;;;12.70;88.20;;;;;;10146121;28;20058;-67
2023/04/27 00:29:23;;;;;;;7.18;4.10;;;12.80;88.80;;;;;;10168730;28;20035;-64
2023/04/27 00:34:14;;;;;;;7.22;3.85;;;12.80;88.80;;;;;;10167746;28;20039;-66
2023/04/27 00:39:05;;;;;;;4.85;3.05;;;12.90;89.10;;;;;;10155433;28;20039;-62
2023/04/27 00:43:55;;;;;;;5.03;3.45;;;12.80;89.20;;;;;;10155654;28;20554;-66
2023/04/27 00:48:47;;;;;;;4.43;2.80;;;12.60;90.00;;;;;;10168071;28;20048;-66
2023/04/27 00:53:38;;;;;;;8.60;3.63;;;12.50;90.10;;;;;;10159634;28;20561;-64
2023/04/27 00:58:28;;;;;;;5.97;3.65;;;12.70;90.20;;;;;;10167116;28;20123;-64
2023/04/27 01:03:19;;;;;;;5.22;3.60;;;12.70;90.10;;;;;;10154521;28;20502;-64
2023/04/27 01:08:09;;;;;;;4.07;3.00;;;12.50;90.40;;;;;;10154575;28;20028;-66
2023/04/27 01:13:00;;;;;;;5.03;2.88;;;12.60;90.40;;;;;;10174766;28;20020;-65
2023/04/27 01:18:00;;;;;;;9.40;3.50;;;12.60;90.60;;;;;;10154472;28;20035;-67
2023/04/27 01:22:52;;;;;;;7.10;4.07;;;12.50;90.80;;;;;;10127690;28;20165;-67
2023/04/27 01:27:43;;;;;;;7.90;3.90;;;12.40;90.90;;;;;;10153228;28;20028;-66
2023/04/27 01:32:36;;;;;;;8.63;4.70;;;12.30;91.00;;;;;;10167293;28;20050;-64
2023/04/27 01:37:27;;;;;;;8.25;4.63;;;12.30;91.10;;;;;;10154622;28;20110;-61
2023/04/27 01:42:17;;;;;;;7.25;4.43;;;12.40;91.20;;;;;;10153970;28;20448;-60
2023/04/27 01:47:08;;;;;;;8.38;4.47;;;12.30;91.40;;;;;;10152776;28;20040;-63
2023/04/27 01:51:59;;;;;;;8.18;4.57;;;12.30;91.40;;;;;;10146845;28;20159;-62
2023/04/27 01:56:50;;;;;;;9.95;5.53;;;12.40;91.50;;;;;;10164927;28;20108;-63
2023/04/27 02:01:40;;;;;;;11.38;5.25;;;12.50;91.50;;;;;;10138821;28;20094;-63
2023/04/27 02:06:31;;;;;;;8.75;4.88;;;12.40;91.60;;;;;;10139432;28;20518;-66
2023/04/27 02:11:22;;;;;;;9.10;5.45;;;12.40;91.70;;;;;;10164994;28;20027;-60
2023/04/27 02:16:12;;;;;;;8.40;4.80;;;12.40;91.70;;;;;;10165080;28;20169;-62
2023/04/27 02:21:08;;;;;;;7.53;4.57;;;12.30;91.80;;;;;;10143531;28;20115;-65
2023/04/27 02:25:59;;;;;;;7.40;4.45;;;12.50;91.70;;;;;;10139066;28;20066;-62
2023/04/27 02:30:49;;;;;;;8.50;4.88;;;12.30;91.80;;;;;;10149284;28;20101;-62
2023/04/27 02:35:41;;;;;;;9.63;4.53;;;12.30;91.90;;;;;;10164279;28;20370;-63
2023/04/27 02:40:31;;;;;;;8.90;5.43;;;12.30;91.90;;;;;;10165098;28;20432;-61
2023/04/27 02:45:22;;;;;;;7.38;4.78;;;12.30;92.00;;;;;;10138477;28;20035;-61
2023/04/27 02:50:13;;;;;;;7.22;4.13;;;12.20;92.10;;;;;;10154444;28;20077;-64
2023/04/27 02:55:04;;;;;;;8.07;4.93;;;12.20;92.10;;;;;;10158604;28;20031;-64
2023/04/27 02:59:55;;;;;;;8.75;4.93;;;12.20;92.10;;;;;;10164342;28;20037;-65
2023/04/27 03:04:45;;;;;;;6.50;4.47;;;12.20;92.20;;;;;;10170514;28;20028;-66
2023/04/27 03:09:36;;;;;;;8.30;5.43;;;12.10;92.40;;;;;;10145317;28;20088;-64
2023/04/27 03:14:27;;;;;;;5.97;4.40;;;12.10;92.40;;;;;;10161871;28;20505;-62
2023/04/27 03:19:17;;;;;;;7.00;4.38;;;12.20;92.50;;;;;;10149587;28;20029;-63
2023/04/27 03:24:08;;;;;;;6.88;3.88;;;12.00;92.60;;;;;;10142832;28;20029;-61
2023/04/27 03:28:59;;;;;;;9.15;4.57;;;11.80;92.90;;;;;;10169864;28;20097;-62
2023/04/27 03:33:50;;;;;;;8.23;4.32;;;11.80;93.00;;;;;;10171237;28;20059;-63
2023/04/27 03:38:41;;;;;;;8.02;4.68;;;11.90;93.00;;;;;;10159917;28;20024;-64
2023/04/27 03:43:32;;;;;;;8.00;4.65;;;11.80;93.10;;;;;;10162112;28;20050;-63
2023/04/27 03:48:22;;;;;;;6.38;4.30;;;11.90;93.20;;;;;;10161777;28;20049;-62
2023/04/27 03:53:13;;;;;;;7.78;4.80;;;11.80;93.40;;;;;;10167967;28;20127;-61
2023/04/27 03:58:05;;;;;;;11.30;5.65;;;11.80;93.40;;;;;;10160705;28;20040;-63
2023/04/27 04:02:55;;;;;;;8.00;4.75;;;11.90;93.40;;;;;;10169700;28;20313;-64
2023/04/27 04:07:46;;;;;;;7.00;5.28;;;11.90;93.60;;;;;;10157355;28;20059;-65
2023/04/27 04:12:36;;;;;;;7.93;4.18;;;11.80;93.70;;;;;;10166718;28;20031;-60
2023/04/27 04:17:27;;;;;;;9.98;4.07;;;11.70;93.80;;;;;;10171843;28;20508;-63
2023/04/27 04:22:18;;;;;;;6.18;3.90;;;11.60;94.10;;;;;;10151353;28;20057;-63
2023/04/27 04:27:08;;;;;;;8.30;5.07;;;11.60;94.20;;;;;;10158899;28;20021;-65
2023/04/27 04:31:59;;;;;;;7.47;4.55;;;11.60;94.30;;;;;;10167717;28;20039;-65
2023/04/27 04:36:53;;;;;;;9.13;4.57;;;11.40;94.50;;;;;;10159672;28;20009;-65
2023/04/27 04:41:43;;;;;;;7.85;4.30;;;11.40;94.60;;;;;;10153098;28;20510;-66
2023/04/27 04:46:36;;;;;;;7.95;3.88;;;11.60;94.50;;;;;;10168268;28;20359;-64
2023/04/27 04:51:26;;;;;;;9.48;4.90;;;11.50;95.00;;;;;;10158377;28;20045;-63
2023/04/27 04:56:17;;;;;;;9.27;4.05;;;11.50;94.90;;;;;;10163036;28;20028;-62
2023/04/27 05:01:07;;;;;;;7.10;4.07;;;11.50;95.00;;;;;;10158170;28;20061;-67
2023/04/27 05:05:58;;;;;;;6.50;4.13;;;11.40;95.10;;;;;;10159265;28;20024;-66
2023/04/27 05:10:53;;;;;;;6.60;4.03;;;11.50;95.10;;;;;;10158219;28;20030;-60
2023/04/27 05:15:43;;;;;;;6.60;4.32;;;11.70;95.10;;;;;;10151565;28;20031;-64
2023/04/27 05:20:35;;;;;;;9.15;4.72;;;11.70;95.20;;;;;;10148945;28;20047;-61
2023/04/27 05:25:28;;;;;;;6.70;4.57;;;11.70;95.30;;;;;;10146139;28;20479;-63
2023/04/27 05:30:19;;;;;;;5.82;4.68;;;11.70;95.40;;;;;;10158526;28;20478;-64
2023/04/27 05:35:10;;;;;;;6.63;4.20;;;11.80;95.50;;;;;;10161449;28;20024;-62
2023/04/27 05:40:00;;;;;;;6.47;4.28;;;11.90;95.60;;;;;;10140588;28;20098;-64
2023/04/27 05:44:51;;;;;;;7.50;4.13;;;11.80;95.70;;;;;;10149310;28;20024;-60
2023/04/27 05:49:42;;;;;;;5.82;3.75;;;11.80;95.90;;;;;;10179621;28;20085;-60
2023/04/27 05:54:33;;;;;;;6.20;4.10;;;11.80;95.90;;;;;;10153330;28;20012;-61
2023/04/27 05:59:23;;;;;;;6.18;4.20;;;11.70;96.10;;;;;;10139212;28;20440;-61
2023/04/27 06:04:14;;;;;;;6.60;4.50;;;11.80;96.30;;;;;;10137349;28;20029;-60
2023/04/27 06:09:05;;;;;;;7.57;3.58;;;11.90;96.30;;;;;;10133355;28;20025;-60
2023/04/27 06:13:55;;;;;;;6.57;3.85;;;12.10;96.20;;;;;;10136000;28;20533;-64
2023/04/27 06:18:46;;;;;;;9.45;5.07;;;12.10;96.30;;;;;;10134590;28;20037;-63
2023/04/27 06:23:37;;;;;;;13.05;5.55;;;12.20;96.40;;;;;;10153425;28;20024;-64
2023/04/27 06:28:27;;;;;;;7.35;4.60;;;12.10;96.60;;;;;;10158574;28;20115;-61
2023/04/27 06:33:18;;;;;;;13.05;5.07;;;12.20;96.70;;;;;;10152695;28;20486;-63
2023/04/27 06:38:08;;;;;;;8.23;5.88;;;12.10;96.80;;;;;;10160759;28;20039;-64
2023/04/27 06:42:59;;;;;;;9.43;4.20;;;12.20;96.80;;;;;;10154547;28;20522;-63
2023/04/27 06:47:49;;;;;;;6.95;4.07;;;12.40;96.60;;;;;;10143002;28;20070;-66
2023/04/27 06:52:40;;;;;;;8.57;4.20;;;12.30;96.80;;;;;;10169757;28;20056;-60
2023/04/27 06:57:31;;;;;;;6.78;4.15;;;12.40;96.70;;;;;;10167191;28;20480;-63
2023/04/27 07:02:21;;;;;;;7.78;4.85;;;12.40;96.80;;;;;;10173440;28;20037;-63
2023/04/27 07:07:12;;;;;;;8.32;4.53;;;12.70;96.80;;;;;;10171124;28;20031;-64
2023/04/27 07:12:03;;;;;;;8.07;3.67;;;12.70;96.70;;;;;;10166011;28;20493;-63
2023/04/27 07:16:54;;;;;;;9.75;4.55;;;12.90;96.80;;;;;;10174201;28;20016;-64
2023/04/27 07:21:45;;;;;;;6.82;4.07;;;13.00;96.70;;;;;;10147346;28;20043;-63
2023/04/27 07:26:36;;;;;;;5.20;3.80;;;12.90;96.80;;;;;;10153939;28;20352;-65
2023/04/27 07:31:27;;;;;;;4.75;3.92;;;13.10;96.90;;;;;;10170632;28;20048;-65
2023/04/27 07:36:17;;;;;;;4.80;3.50;;;13.50;96.70;;;;;;10166245;28;20477;-63
2023/04/27 07:41:09;;;;;;;7.65;4.78;;;13.60;96.70;;;;;;10140976;28;20074;-65
2023/04/27 07:46:00;;;;;;;8.27;4.95;;;13.70;96.60;;;;;;10172802;28;20198;-61
2023/04/27 07:50:51;;;;;;;7.20;4.38;;;13.70;96.80;;;;;;10166314;28;20084;-59
2023/04/27 07:55:43;;;;;;;8.10;4.07;;;13.80;96.70;;;;;;10161199;28;20024;-63
2023/04/27 08:00:34;;;;;;;6.55;3.45;;;14.00;96.50;;;;;;10170827;28;20493;-60
2023/04/27 08:05:24;;;;;;;8.43;5.40;;;14.00;96.40;;;;;;10166187;28;20037;-62
2023/04/27 08:10:15;;;;;;;6.68;4.55;;;14.00;96.50;;;;;;10157495;28;20025;-65
2023/04/27 08:15:06;;;;;;;8.13;4.60;;;14.20;96.50;;;;;;10169247;28;20031;-60
2023/04/27 08:19:57;;;;;;;4.32;3.47;;;14.10;96.50;;;;;;10152821;28;20410;-67
2023/04/27 08:24:47;;;;;;;9.18;4.88;;;14.20;96.50;;;;;;10136219;28;20027;-67
2023/04/27 08:29:46;;;;;;;9.52;6.15;;;14.40;96.40;;;;;;10152060;28;20077;-66
2023/04/27 08:34:37;;;;;;;10.77;4.82;;;14.70;96.30;;;;;;10146685;28;20017;-69
2023/04/27 08:39:27;;;;;;;6.97;3.88;;;14.80;96.10;;;;;;10159758;28;20119;-67
2023/04/27 08:44:18;;;;;;;7.47;3.92;;;15.10;95.80;;;;;;10166519;28;20059;-66
2023/04/27 08:49:09;;;;;;;9.00;5.45;;;15.00;95.80;;;;;;10158816;28;20044;-65
2023/04/27 08:54:00;;;;;;;7.85;5.45;;;15.10;95.80;;;;;;10164402;28;20029;-65
2023/04/27 08:58:52;;;;;;;5.93;4.32;;;15.40;95.20;;;;;;10162940;28;20040;-62
2023/04/27 09:03:45;;;;;;;8.75;4.65;;;15.40;95.50;;;;;;10164495;28;20060;-61
2023/04/27 09:08:48;;;;;;;7.65;4.43;;;15.80;95.30;;;;;;10123469;28;20454;-63
2023/04/27 09:13:43;;;;;;;8.27;4.18;;;16.00;95.30;;;;;;10148985;28;20020;-63
2023/04/27 09:18:36;;;;;;;7.82;4.03;;;16.20;95.00;;;;;;10167796;28;20342;-64
2023/04/27 09:23:30;;;;;;;9.93;3.60;;;16.40;94.70;;;;;;10141359;28;20119;-66
2023/04/27 09:28:26;;;;;;;7.22;4.05;;;16.40;94.70;;;;;;10144656;28;20037;-61
2023/04/27 09:33:23;;;;;;;5.75;4.05;;;16.30;94.60;;;;;;10159792;28;20024;-66
2023/04/27 09:38:13;;;;;;;5.90;3.70;;;16.00;94.60;;;;;;10166152;28;20024;-62
2023/04/27 09:43:06;;;;;;;8.65;3.35;;;15.90;94.40;;;;;;10153376;28;20465;-62
2023/04/27 09:47:57;;;;;;;7.18;4.20;;;15.90;94.40;;;;;;10159390;28;20052;-64
2023/04/27 09:52:48;;;;;;;6.60;3.25;;;15.90;94.20;;;;;;10143816;28;20036;-64
2023/04/27 09:57:57;;;;;;;8.38;3.47;;;16.00;94.10;;;;;;10165719;28;20039;-62
2023/04/27 10:03:11;;;;;;;4.45;2.90;;;16.20;93.90;;;;;;10156953;28;20043;-66
2023/04/27 10:08:04;;;;;;;5.32;3.95;;;16.40;93.90;;;;;;10154941;28;20107;-63
2023/04/27 10:13:01;;;;;;;4.55;3.25;;;16.60;93.80;;;;;;10163404;28;20020;-63
2023/04/27 10:17:53;;;;;;;6.25;2.92;;;16.80;93.60;;;;;;10152705;28;20115;-61
2023/04/27 10:22:51;;;;;;;5.95;3.33;;;17.00;93.40;;;;;;10140858;28;20661;-62
2023/04/27 10:27:42;;;;;;;4.22;3.00;;;16.90;93.30;;;;;;10162486;28;20312;-65
2023/04/27 10:32:32;;;;;;;6.90;2.80;;;16.90;93.30;;;;;;10179129;28;20349;-65
2023/04/27 10:37:36;;;;;;;4.88;2.80;;;17.10;93.10;;;;;;10175701;28;20191;-66
2023/04/27 10:42:27;;;;;;;6.20;2.25;;;17.10;92.90;;;;;;10155677;28;20096;-67
2023/04/27 10:47:18;;;;;;;5.18;2.58;;;17.00;92.90;;;;;;10176740;28;20127;-67
2023/04/27 10:52:09;;;;;;;2.67;2.25;;;17.30;92.70;;;;;;10165930;28;20029;-65
2023/04/27 10:57:06;;;;;;;3.75;2.88;;;17.50;92.50;;;;;;10192361;28;20038;-63
2023/04/27 11:01:57;;;;;;;3.08;2.05;;;17.40;92.30;;;;;;10171686;28;20028;-67
2023/04/27 11:06:49;;;;;;;3.28;2.25;;;17.40;92.30;;;;;;10190291;28;20370;-66
2023/04/27 11:11:45;;;;;;;4.57;2.42;;;17.30;92.20;;;;;;10130238;28;20040;-67
2023/04/27 11:16:45;;;;;;;5.18;2.85;;;17.30;92.40;;;;;;10177809;28;20085;-65
2023/04/27 11:21:36;;;;;;;5.80;2.40;;;17.30;92.10;;;;;;10148420;28;20066;-65
2023/04/27 11:26:27;;;;;;;5.10;3.20;;;17.30;92.00;;;;;;10174803;28;20025;-66
2023/04/27 11:31:18;;;;;;;5.32;2.33;;;17.60;91.80;;;;;;10178593;28;20028;-63
2023/04/27 11:36:19;;;;;;;4.32;2.08;;;17.60;91.60;;;;;;10144856;28;20035;-66
2023/04/27 11:41:10;;;;;;;4.78;2.53;;;17.80;91.50;;;;;;10153908;28;20039;-64
2023/04/27 11:46:05;;;;;;;4.10;2.30;;;17.90;91.40;;;;;;10170944;28;20124;-62
2023/04/27 11:51:00;;;;;;;7.28;3.47;;;18.10;91.10;;;;;;10171335;28;20290;-66
2023/04/27 11:55:51;;;;;;;3.40;2.47;;;18.20;91.10;;;;;;10144438;28;20032;-64
2023/04/27 12:00:42;;;;;;;5.13;2.67;;;18.10;91.00;;;;;;10149678;28;20040;-63
2023/04/27 12:05:33;;;;;;;3.70;2.05;;;18.30;90.90;;;;;;10153881;28;20036;-65
2023/04/27 12:10:24;;;;;;;4.85;2.25;;;18.70;90.70;;;;;;10159129;28;20032;-63
2023/04/27 12:15:15;;;;;;;7.65;3.00;;;18.80;90.60;;;;;;10160299;28;20024;-64
2023/04/27 12:20:06;;;;;;;4.65;2.45;;;18.80;90.50;;;;;;10147280;28;20398;-65
2023/04/27 12:24:57;;;;;;;3.30;2.25;;;18.90;90.40;;;;;;10147832;28;20108;-63
2023/04/27 12:29:47;;;;;;;4.85;2.40;;;19.30;90.30;;;;;;10157062;28;20115;-60
2023/04/27 12:34:38;;;;;;;3.95;1.77;;;19.50;90.20;;;;;;10159891;28;20450;-62
2023/04/27 12:39:29;;;;;;;3.72;2.00;;;19.60;90.20;;;;;;10146273;28;20168;-63
2023/04/27 12:44:20;;;;;;;4.78;2.28;;;19.80;90.20;;;;;;10147002;28;20021;-66
2023/04/27 12:49:11;;;;;;;4.10;2.28;;;20.30;90.40;;;;;;10158777;28;20429;-62
2023/04/27 12:54:03;;;;;;;4.63;2.63;;;21.40;90.50;;;;;;10167527;28;20038;-62
2023/04/27 12:58:54;;;;;;;3.80;2.33;;;21.50;90.40;;;;;;10168235;28;20040;-64
2023/04/27 13:03:46;;;;;;;5.18;2.42;;;21.70;90.50;;;;;;10157871;28;20027;-62
2023/04/27 13:08:37;;;;;;;4.10;2.60;;;22.10;90.50;;;;;;10168488;28;20121;-60
2023/04/27 13:13:28;;;;;;;5.00;2.47;;;22.80;90.30;;;;;;10164357;28;20121;-64
2023/04/27 13:18:19;;;;;;;2.28;1.95;;;24.70;89.30;;;;;;10157903;28;20076;-66
2023/04/27 13:23:10;;;;;;;5.03;2.40;;;26.10;86.90;;;;;;10153606;28;20113;-62
2023/04/27 13:28:01;;;;;;;4.38;2.40;;;24.80;84.60;;;;;;10151036;28;20102;-64
2023/04/27 13:32:52;;;;;;;3.40;2.28;;;26.10;83.60;;;;;;10164366;28;20021;-63
2023/04/27 13:37:43;;;;;;;3.30;2.35;;;28.20;80.60;;;;;;10169614;28;20322;-62
2023/04/27 13:42:33;;;;;;;3.78;1.77;;;27.30;79.00;;;;;;10154128;28;20042;-66
2023/04/27 13:47:24;;;;;;;3.42;2.47;;;27.90;76.40;;;;;;10164137;28;20016;-64
2023/04/27 13:52:15;;;;;;;4.28;1.60;;;28.80;75.50;;;;;;10159546;28;20084;-66
2023/04/27 13:57:06;;;;;;;3.63;1.90;;;26.20;75.20;;;;;;10154713;28;20045;-65
2023/04/27 14:01:57;;;;;;;2.85;1.45;;;24.50;75.30;;;;;;10163728;28;20202;-62
2023/04/27 14:06:48;;;;;;;2.10;1.90;;;24.30;74.90;;;;;;10163032;28;20138;-60
2023/04/27 14:11:38;;;;;;;3.13;2.13;;;23.60;74.00;;;;;;10164707;28;20030;-62
2023/04/27 14:16:29;;;;;;;2.55;1.67;;;26.00;72.50;;;;;;10153185;28;20108;-62
2023/04/27 14:21:20;;;;;;;2.53;1.83;;;26.90;71.40;;;;;;10151238;28;20044;-64
2023/04/27 14:26:11;;;;;;;4.40;2.25;;;26.60;70.40;;;;;;10164272;28;20123;-63
2023/04/27 14:31:01;;;;;;;3.53;2.58;;;27.30;70.30;;;;;;10152688;28;20220;-62
2023/04/27 14:35:53;;;;;;;2.78;2.05;;;26.30;70.20;;;;;;10165397;28;20391;-63
2023/04/27 14:40:44;;;;;;;2.25;1.70;;;25.50;70.50;;;;;;10164441;28;20032;-64
2023/04/27 14:45:35;;;;;;;3.03;1.80;;;26.40;69.90;;;;;;10140778;28;20024;-62
2023/04/27 14:50:27;;;;;;;3.70;1.70;;;26.60;69.00;;;;;;10145978;28;20053;-63
2023/04/27 14:55:17;;;;;;;3.25;1.77;;;27.20;68.60;;;;;;10157807;28;20021;-63
2023/04/27 15:00:09;;;;;;;2.00;1.52;;;27.80;68.20;;;;;;10151557;28;20037;-63
2023/04/27 15:04:59;;;;;;;6.38;1.70;;;28.90;67.60;;;;;;10158531;28;20024;-63
2023/04/27 15:09:51;;;;;;;3.95;1.55;;;29.40;66.70;;;;;;10144664;28;20432;-61
2023/04/27 15:14:41;;;;;;;2.25;1.70;;;28.20;66.80;;;;;;10153779;28;20043;-62
2023/04/27 15:19:32;;;;;;;2.20;1.60;;;29.70;65.60;;;;;;10158633;28;20516;-60
2023/04/27 15:24:22;;;;;;;2.35;2.13;;;30.80;64.40;;;;;;10145315;28;20039;-61
2023/04/27 15:29:13;;;;;;;2.90;1.52;;;30.60;64.20;;;;;;10156249;28;20020;-63
2023/04/27 15:34:04;;;;;;;2.15;1.35;;;27.50;65.50;;;;;;10158641;28;20103;-65
2023/04/27 15:38:55;;;;;;;2.38;1.80;;;25.30;66.70;;;;;;10170844;28;20452;-62
2023/04/27 15:43:46;;;;;;;2.15;1.58;;;26.00;65.00;;;;;;10158847;28;20481;-63
2023/04/27 15:48:37;;;;;;;3.22;1.92;;;24.00;66.20;;;;;;10170820;28;20453;-66
2023/04/27 15:53:27;;;;;;;2.97;1.92;;;26.20;64.10;;;;;;10164070;28;20024;-62
2023/04/27 15:58:18;;;;;;;4.00;2.00;;;25.30;64.60;;;;;;10170204;28;20024;-64
2023/04/27 16:03:09;;;;;;;3.47;2.05;;;24.50;65.10;;;;;;10157717;28;20046;-63
2023/04/27 16:08:00;;;;;;;4.82;2.25;;;25.10;64.60;;;;;;10156324;28;20020;-61
2023/04/27 16:12:50;;;;;;;3.20;2.85;;;24.70;64.60;;;;;;10176325;28;20051;-61
2023/04/27 16:17:41;;;;;;;4.25;1.85;;;25.90;64.10;;;;;;10157405;28;20054;-61
2023/04/27 16:22:36;;;;;;;3.78;1.85;;;25.90;63.50;;;;;;10153290;28;20028;-62
2023/04/27 16:27:27;;;;;;;3.75;2.58;;;25.10;64.40;;;;;;10137904;28;20051;-62
2023/04/27 16:32:18;;;;;;;3.78;1.85;;;26.00;63.40;;;;;;10166810;28;20482;-62
2023/04/27 16:37:10;;;;;;;3.17;1.83;;;26.50;63.50;;;;;;10157417;28;20580;-62
2023/04/27 16:42:00;;;;;;;2.72;1.70;;;28.50;61.60;;;;;;10158919;28;20179;-64
2023/04/27 16:46:51;;;;;;;2.80;1.40;;;25.50;64.10;;;;;;10146023;28;20169;-63
2023/04/27 16:51:42;;;;;;;3.97;1.85;;;23.90;65.90;;;;;;10156694;28;20572;-60
2023/04/27 16:56:34;;;;;;;4.28;1.67;;;23.00;66.60;;;;;;10167479;28;20757;-62
2023/04/27 17:01:27;;;;;;;2.47;1.27;;;25.10;63.90;;;;;;10165855;28;20109;-65
2023/04/27 17:06:18;;;;;;;2.13;1.37;;;23.60;65.40;;;;;;10156719;28;20104;-61
2023/04/27 17:11:09;;;;;;;3.95;2.13;;;22.40;66.90;;;;;;10161766;28;20039;-62
2023/04/27 17:16:00;;;;;;;1.67;1.52;;;22.10;66.80;;;;;;10156663;28;20082;-63
2023/04/27 17:20:51;;;;;;;3.75;2.33;;;21.60;67.50;;;;;;10143067;28;20039;-67
2023/04/27 17:25:41;;;;;;;2.72;1.70;;;21.50;67.40;;;;;;10162234;28;20016;-61
2023/04/27 17:30:32;;;;;;;2.80;1.75;;;21.50;67.20;;;;;;10153366;28;20404;-65
2023/04/27 17:35:23;;;;;;;2.83;2.00;;;21.30;67.30;;;;;;10159784;28;20020;-66
2023/04/27 17:40:19;;;;;;;2.38;1.80;;;21.10;67.60;;;;;;10167199;28;20032;-64
2023/04/27 17:45:10;;;;;;;2.85;1.55;;;21.00;67.80;;;;;;10139913;28;20027;-64
2023/04/27 17:50:00;;;;;;;5.80;2.00;;;20.80;68.00;;;;;;10155507;28;20048;-66
2023/04/27 17:54:51;;;;;;;1.92;1.48;;;20.80;68.20;;;;;;10162088;28;20118;-66
2023/04/27 17:59:42;;;;;;;5.22;1.80;;;20.60;68.60;;;;;;10161964;28;20040;-67
2023/04/27 18:04:32;;;;;;;2.63;2.08;;;20.50;68.80;;;;;;10165707;28;20031;-63
2023/04/27 18:09:25;;;;;;;5.95;2.78;;;20.50;69.00;;;;;;10148354;28;20035;-68
2023/04/27 18:14:16;;;;;;;6.05;3.15;;;20.30;69.20;;;;;;10157216;28;20025;-66
2023/04/27 18:19:07;;;;;;;3.85;2.65;;;20.20;69.60;;;;;;10168616;28;20118;-66
2023/04/27 18:23:57;;;;;;;8.65;3.42;;;20.20;69.80;;;;;;10141374;28;20040;-66
2023/04/27 18:28:48;;;;;;;6.07;3.63;;;20.10;69.90;;;;;;10161858;28;20028;-63
2023/04/27 18:33:38;;;;;;;7.53;3.03;;;20.00;70.30;;;;;;10147517;28;20024;-65
2023/04/27 18:38:29;;;;;;;6.25;2.90;;;20.00;70.40;;;;;;10155942;28;20532;-65
2023/04/27 18:43:20;;;;;;;6.28;3.25;;;19.90;71.00;;;;;;10137078;28;20500;-63
2023/04/27 18:48:11;;;;;;;5.45;3.00;;;19.90;71.20;;;;;;10177064;28;20110;-62
2023/04/27 18:53:01;;;;;;;7.07;4.10;;;19.80;71.30;;;;;;10160808;28;20042;-62
2023/04/27 18:57:52;;;;;;;7.97;4.63;;;19.90;71.50;;;;;;10164523;28;20403;-63
2023/04/27 19:02:42;;;;;;;6.78;3.67;;;19.80;71.70;;;;;;10166904;28;20381;-66
2023/04/27 19:07:33;;;;;;;4.05;2.88;;;19.80;71.90;;;;;;10167772;28;20057;-64
2023/04/27 19:12:24;;;;;;;5.43;2.78;;;19.70;72.30;;;;;;10147440;28;20048;-68
2023/04/27 19:17:15;;;;;;;2.95;2.28;;;19.60;72.60;;;;;;10162561;28;20123;-67
2023/04/27 19:22:06;;;;;;;3.55;2.17;;;19.50;72.70;;;;;;10143321;28;20097;-63
2023/04/27 19:26:57;;;;;;;3.58;2.72;;;19.60;73.10;;;;;;10155100;28;20031;-64
2023/04/27 19:31:48;;;;;;;9.07;3.75;;;19.50;73.30;;;;;;10166903;28;20107;-67
2023/04/27 19:36:39;;;;;;;6.22;3.08;;;19.40;73.50;;;;;;10164182;28;20267;-60
2023/04/27 19:41:29;;;;;;;4.50;2.30;;;19.30;73.80;;;;;;10158186;28;20048;-67
2023/04/27 19:46:20;;;;;;;5.68;3.00;;;19.30;74.20;;;;;;10170736;28;20224;-65
2023/04/27 19:51:10;;;;;;;7.35;3.67;;;19.30;74.20;;;;;;10164197;28;20076;-62
2023/04/27 19:56:01;;;;;;;5.50;3.13;;;19.30;74.70;;;;;;10155324;28;20092;-63
2023/04/27 20:00:52;;;;;;;10.15;5.32;;;19.20;74.70;;;;;;10169728;28;20031;-61
2023/04/27 20:05:43;;;;;;;6.88;3.67;;;19.20;75.00;;;;;;10151650;28;20131;-63
2023/04/27 20:10:34;;;;;;;9.48;3.85;;;19.20;75.10;;;;;;10140553;28;20039;-60
2023/04/27 20:15:24;;;;;;;9.15;3.95;;;19.20;75.30;;;;;;10157952;28;20396;-65
2023/04/27 20:20:15;;;;;;;10.80;3.95;;;19.10;75.60;;;;;;10150958;28;20051;-61
2023/04/27 20:25:06;;;;;;;8.55;3.53;;;19.10;75.80;;;;;;10159593;28;20099;-60
2023/04/27 20:29:57;;;;;;;5.60;2.85;;;19.10;76.00;;;;;;10164013;28;20027;-62
2023/04/27 20:34:48;;;;;;;4.93;2.38;;;19.00;76.20;;;;;;10161398;28;20120;-63
2023/04/27 20:39:38;;;;;;;6.63;3.03;;;18.90;76.40;;;;;;10168257;28;20043;-64
2023/04/27 20:44:31;;;;;;;6.38;2.65;;;18.90;76.50;;;;;;10138852;28;20073;-61
2023/04/27 20:49:21;;;;;;;7.15;3.17;;;19.00;76.80;;;;;;10163294;28;20472;-62
2023/04/27 20:54:12;;;;;;;6.97;3.65;;;19.00;76.80;;;;;;10163214;28;20050;-63
2023/04/27 20:59:02;;;;;;;7.00;2.72;;;18.90;76.90;;;;;;10159025;28;20461;-61
2023/04/27 21:03:53;;;;;;;4.68;2.45;;;18.90;77.10;;;;;;10163406;28;20115;-65
2023/04/27 21:08:44;;;;;;;4.78;2.10;;;18.90;77.20;;;;;;10165617;28;20171;-61
2023/04/27 21:13:35;;;;;;;5.22;2.53;;;18.80;77.30;;;;;;10140651;28;20020;-61
2023/04/27 21:18:26;;;;;;;5.18;1.77;;;18.80;78.00;;;;;;10162692;28;20132;-61
2023/04/27 21:23:18;;;;;;;4.50;2.22;;;18.80;77.60;;;;;;10160285;28;20032;-63
2023/04/27 21:28:08;;;;;;;4.40;2.45;;;18.60;77.90;;;;;;10168381;28;20012;-66
2023/04/27 21:32:59;;;;;;;4.18;2.80;;;18.60;78.20;;;;;;10142778;28;20465;-60
2023/04/27 21:37:49;;;;;;;4.72;2.85;;;18.60;78.40;;;;;;10158282;28;20028;-61
2023/04/27 21:42:41;;;;;;;5.32;2.88;;;18.50;78.70;;;;;;10153951;28;20040;-62
2023/04/27 21:47:32;;;;;;;3.92;2.28;;;18.50;79.10;;;;;;10149686;28;20056;-61
2023/04/27 21:52:23;;;;;;;5.15;2.67;;;18.40;79.50;;;;;;10145325;28;20040;-61
2023/04/27 21:57:13;;;;;;;5.03;2.67;;;18.50;79.70;;;;;;10139765;28;20027;-60
2023/04/27 22:02:05;;;;;;;5.80;2.65;;;18.40;79.80;;;;;;10142277;28;20037;-61
2023/04/27 22:06:55;;;;;;;5.00;2.53;;;18.40;80.00;;;;;;10148846;28;20021;-60
2023/04/27 22:11:46;;;;;;;5.90;2.50;;;18.40;80.20;;;;;;10161228;28;20442;-61
2023/04/27 22:16:37;;;;;;;5.05;2.60;;;18.30;80.40;;;;;;10176830;28;20031;-62
2023/04/27 22:21:28;;;;;;;3.50;2.20;;;18.30;80.30;;;;;;10127204;28;20044;-60
2023/04/27 22:26:18;;;;;;;3.40;2.70;;;18.30;80.50;;;;;;10147590;28;20036;-64
2023/04/27 22:31:09;;;;;;;5.72;2.83;;;18.30;80.50;;;;;;10161295;28;20028;-64
2023/04/27 22:36:00;;;;;;;4.28;3.28;;;18.30;80.60;;;;;;10163617;28;20024;-61
2023/04/27 22:40:50;;;;;;;4.47;3.25;;;18.20;80.90;;;;;;10152683;28;20025;-63
2023/04/27 22:45:41;;;;;;;6.63;3.42;;;18.20;81.00;;;;;;10152161;28;20035;-61
2023/04/27 22:50:31;;;;;;;7.07;3.08;;;18.20;81.20;;;;;;10164036;28;20124;-63
2023/04/27 22:55:22;;;;;;;5.57;3.38;;;18.10;81.40;;;;;;10152663;28;20347;-65
2023/04/27 23:00:13;;;;;;;5.40;3.55;;;18.10;81.50;;;;;;10166103;28;20466;-63
2023/04/27 23:05:05;;;;;;;6.13;3.28;;;18.10;81.80;;;;;;10151864;28;20043;-64
2023/04/27 23:09:59;;;;;;;6.45;3.38;;;18.00;82.10;;;;;;10161764;28;20025;-60
2023/04/27 23:14:50;;;;;;;4.65;3.40;;;17.90;82.70;;;;;;10151264;28;20031;-61
2023/04/27 23:19:41;;;;;;;6.25;3.20;;;17.90;83.20;;;;;;10149251;28;20032;-64
2023/04/27 23:24:31;;;;;;;6.70;3.83;;;17.90;83.40;;;;;;10129436;28;20485;-59
2023/04/27 23:29:22;;;;;;;6.38;3.85;;;17.80;83.80;;;;;;10128234;28;20036;-62
2023/04/27 23:34:14;;;;;;;7.93;4.78;;;17.80;84.30;;;;;;10168446;28;20375;-61
2023/04/27 23:39:04;;;;;;;4.97;3.22;;;17.70;84.60;;;;;;10159182;28;20028;-59
2023/04/27 23:43:55;;;;;;;6.57;3.55;;;17.70;84.80;;;;;;10158677;28;20044;-62
2023/04/27 23:48:46;;;;;;;4.68;3.67;;;17.60;85.30;;;;;;10169419;28;20043;-64
2023/04/27 23:53:36;;;;;;;8.98;5.57;;;17.70;85.40;;;;;;10145391;28;20036;-59
2023/04/27 23:58:27;;;;;;;9.00;5.68;;;17.70;85.60;;;;;;10147996;28;20029;-61
